sensor_id;sensor_type;location;lat;lon;timestamp;pressure;altitude;pressure_sealevel;temperature;humidity
49611;BME280;35515;48.766;9.176;2023-08-08T00:01:09;98488.88;;;15.06;71.50
49611;BME280;35515;48.766;9.176;2023-08-08T00:03:35;98480.56;;;14.89;73.17
49611;BME280;35515;48.766;9.176;2023-08-08T00:06:02;98482.78;;;14.80;73.12
49611;BME280;35515;48.766;9.176;2023-08-08T00:08:28;98482.31;;;14.71;75.80
49611;BME280;35515;48.766;9.176;2023-08-08T00:10:56;98480.28;;;14.79;75.10
49611;BME280;35515;48.766;9.176;2023-08-08T00:13:23;98477.09;;;14.82;76.75
49611;BME280;35515;48.766;9.176;2023-08-08T00:15:50;98483.88;;;14.91;73.66
49611;BME280;35515;48.766;9.176;2023-08-08T00:18:16;98487.81;;;15.07;72.51
49611;BME280;35515;48.766;9.176;2023-08-08T00:20:43;98480.06;;;14.80;74.28
49611;BME280;35515;48.766;9.176;2023-08-08T00:23:09;98480.94;;;15.04;72.72
49611;BME280;35515;48.766;9.176;2023-08-08T00:25:36;98491.72;;;14.87;74.20
49611;BME280;35515;48.766;9.176;2023-08-08T00:28:04;98493.13;;;15.02;72.57
49611;BME280;35515;48.766;9.176;2023-08-08T00:30:31;98490.97;;;14.80;76.40
49611;BME280;35515;48.766;9.176;2023-08-08T00:32:57;98483.25;;;14.77;76.37
49611;BME280;35515;48.766;9.176;2023-08-08T00:35:24;98486.25;;;14.87;73.58
49611;BME280;35515;48.766;9.176;2023-08-08T00:37:50;98480.06;;;14.80;76.33
49611;BME280;35515;48.766;9.176;2023-08-08T00:40:17;98480.06;;;14.80;75.53
49611;BME280;35515;48.766;9.176;2023-08-08T00:42:44;98481.25;;;14.84;77.46
49611;BME280;35515;48.766;9.176;2023-08-08T00:45:12;98477.97;;;14.94;74.34
49611;BME280;35515;48.766;9.176;2023-08-08T00:47:38;98466.69;;;14.91;75.50
49611;BME280;35515;48.766;9.176;2023-08-08T00:50:06;98474.88;;;14.91;75.90
49611;BME280;35515;48.766;9.176;2023-08-08T00:52:33;98474.16;;;14.95;73.75
49611;BME280;35515;48.766;9.176;2023-08-08T00:55:00;98475.94;;;14.90;76.13
49611;BME280;35515;48.766;9.176;2023-08-08T00:57:27;98475.13;;;15.01;73.50
49611;BME280;35515;48.766;9.176;2023-08-08T00:59:53;98468.94;;;14.94;75.51
49611;BME280;35515;48.766;9.176;2023-08-08T01:02:21;98468.22;;;14.86;76.26
49611;BME280;35515;48.766;9.176;2023-08-08T01:04:48;98471.19;;;14.85;77.40
49611;BME280;35515;48.766;9.176;2023-08-08T01:07:20;98460.72;;;14.82;75.63
49611;BME280;35515;48.766;9.176;2023-08-08T01:09:53;98453.13;;;14.72;78.82
49611;BME280;35515;48.766;9.176;2023-08-08T01:12:23;98464.34;;;14.94;74.55
49611;BME280;35515;48.766;9.176;2023-08-08T01:14:50;98463.16;;;15.14;72.60
49611;BME280;35515;48.766;9.176;2023-08-08T01:17:18;98470.88;;;15.05;73.11
49611;BME280;35515;48.766;9.176;2023-08-08T01:19:46;98461.69;;;14.99;73.25
49611;BME280;35515;48.766;9.176;2023-08-08T01:22:19;98462.19;;;14.96;73.58
49611;BME280;35515;48.766;9.176;2023-08-08T01:24:50;98466.94;;;15.01;74.01
49611;BME280;35515;48.766;9.176;2023-08-08T01:27:17;98465.41;;;15.05;73.04
49611;BME280;35515;48.766;9.176;2023-08-08T01:29:44;98463.25;;;15.07;74.06
49611;BME280;35515;48.766;9.176;2023-08-08T01:32:10;98453.91;;;15.27;72.28
49611;BME280;35515;48.766;9.176;2023-08-08T01:34:37;98447.63;;;15.02;74.40
49611;BME280;35515;48.766;9.176;2023-08-08T01:37:07;98449.59;;;14.95;75.58
49611;BME280;35515;48.766;9.176;2023-08-08T01:39:38;98447.50;;;14.97;75.21
49611;BME280;35515;48.766;9.176;2023-08-08T01:42:07;98446.28;;;14.93;76.98
49611;BME280;35515;48.766;9.176;2023-08-08T01:44:35;98443.69;;;14.98;75.36
49611;BME280;35515;48.766;9.176;2023-08-08T01:47:01;98442.84;;;14.98;76.14
49611;BME280;35515;48.766;9.176;2023-08-08T01:49:28;98448.56;;;15.08;75.02
49611;BME280;35515;48.766;9.176;2023-08-08T01:51:54;98444.03;;;15.02;75.10
49611;BME280;35515;48.766;9.176;2023-08-08T01:54:21;98439.31;;;15.09;74.36
49611;BME280;35515;48.766;9.176;2023-08-08T01:56:47;98441.31;;;15.02;75.50
49611;BME280;35515;48.766;9.176;2023-08-08T01:59:15;98439.31;;;15.09;74.86
49611;BME280;35515;48.766;9.176;2023-08-08T02:01:42;98444.16;;;15.07;75.90
49611;BME280;35515;48.766;9.176;2023-08-08T02:04:08;98446.66;;;14.97;76.24
49611;BME280;35515;48.766;9.176;2023-08-08T02:06:35;98446.19;;;15.00;75.99
49611;BME280;35515;48.766;9.176;2023-08-08T02:09:01;98438.00;;;15.00;75.79
49611;BME280;35515;48.766;9.176;2023-08-08T02:11:28;98439.88;;;14.99;75.29
49611;BME280;35515;48.766;9.176;2023-08-08T02:13:54;98427.66;;;15.02;74.99
49611;BME280;35515;48.766;9.176;2023-08-08T02:16:22;98433.75;;;15.16;73.66
49611;BME280;35515;48.766;9.176;2023-08-08T02:18:49;98428.75;;;15.01;75.73
49611;BME280;35515;48.766;9.176;2023-08-08T02:21:15;98429.22;;;14.98;75.75
49611;BME280;35515;48.766;9.176;2023-08-08T02:23:42;98431.13;;;14.97;75.51
49611;BME280;35515;48.766;9.176;2023-08-08T02:26:09;98423.19;;;14.96;76.61
49611;BME280;35515;48.766;9.176;2023-08-08T02:28:35;98422.94;;;14.97;76.99
49611;BME280;35515;48.766;9.176;2023-08-08T02:31:02;98427.44;;;15.15;74.13
49611;BME280;35515;48.766;9.176;2023-08-08T02:33:30;98428.78;;;15.13;73.84
49611;BME280;35515;48.766;9.176;2023-08-08T02:35:56;98423.88;;;15.03;74.70
49611;BME280;35515;48.766;9.176;2023-08-08T02:38:23;98427.22;;;15.05;73.94
49611;BME280;35515;48.766;9.176;2023-08-08T02:40:49;98431.50;;;15.01;74.54
49611;BME280;35515;48.766;9.176;2023-08-08T02:43:16;98432.69;;;15.05;74.73
49611;BME280;35515;48.766;9.176;2023-08-08T02:45:42;98431.81;;;14.93;76.05
49611;BME280;35515;48.766;9.176;2023-08-08T02:48:09;98425.56;;;15.28;72.98
49611;BME280;35515;48.766;9.176;2023-08-08T02:50:37;98431.34;;;14.96;76.25
49611;BME280;35515;48.766;9.176;2023-08-08T02:53:03;98427.00;;;15.18;73.54
49611;BME280;35515;48.766;9.176;2023-08-08T02:55:30;98421.28;;;15.08;74.19
49611;BME280;35515;48.766;9.176;2023-08-08T02:57:56;98418.28;;;14.98;74.87
49611;BME280;35515;48.766;9.176;2023-08-08T03:00:23;98422.00;;;14.92;74.82
49611;BME280;35515;48.766;9.176;2023-08-08T03:02:50;98417.00;;;15.12;73.37
49611;BME280;35515;48.766;9.176;2023-08-08T03:05:16;98426.50;;;15.21;72.87
49611;BME280;35515;48.766;9.176;2023-08-08T03:07:44;98420.09;;;15.04;74.03
49611;BME280;35515;48.766;9.176;2023-08-08T03:10:10;98413.09;;;14.96;74.25
49611;BME280;35515;48.766;9.176;2023-08-08T03:12:37;98424.84;;;15.20;73.09
49611;BME280;35515;48.766;9.176;2023-08-08T03:15:05;98422.22;;;15.02;73.95
49611;BME280;35515;48.766;9.176;2023-08-08T03:17:32;98418.53;;;14.84;76.13
49611;BME280;35515;48.766;9.176;2023-08-08T03:19:58;98419.25;;;14.92;75.09
49611;BME280;35515;48.766;9.176;2023-08-08T03:22:25;98420.53;;;14.77;75.57
49611;BME280;35515;48.766;9.176;2023-08-08T03:24:53;98421.72;;;14.81;75.42
49611;BME280;35515;48.766;9.176;2023-08-08T03:27:20;98423.41;;;14.82;75.29
49611;BME280;35515;48.766;9.176;2023-08-08T03:29:46;98426.22;;;14.76;76.05
49611;BME280;35515;48.766;9.176;2023-08-08T03:32:13;98431.56;;;14.70;77.24
49611;BME280;35515;48.766;9.176;2023-08-08T03:34:39;98429.91;;;14.81;75.50
49611;BME280;35515;48.766;9.176;2023-08-08T03:37:06;98426.56;;;14.79;75.79
49611;BME280;35515;48.766;9.176;2023-08-08T03:39:32;98434.66;;;14.86;75.19
49611;BME280;35515;48.766;9.176;2023-08-08T03:42:00;98422.22;;;14.78;75.19
49611;BME280;35515;48.766;9.176;2023-08-08T03:44:26;98422.78;;;14.80;75.30
49611;BME280;35515;48.766;9.176;2023-08-08T03:46:53;98428.38;;;14.85;75.24
49611;BME280;35515;48.766;9.176;2023-08-08T03:49:19;98425.50;;;14.80;76.02
49611;BME280;35515;48.766;9.176;2023-08-08T03:51:46;98426.81;;;14.78;76.14
49611;BME280;35515;48.766;9.176;2023-08-08T03:54:13;98434.75;;;14.79;76.69
49611;BME280;35515;48.766;9.176;2023-08-08T03:56:40;98436.41;;;14.80;76.53
49611;BME280;35515;48.766;9.176;2023-08-08T03:59:08;98430.59;;;14.77;77.47
49611;BME280;35515;48.766;9.176;2023-08-08T04:01:35;98423.25;;;14.77;77.55
49611;BME280;35515;48.766;9.176;2023-08-08T04:04:03;98421.25;;;14.84;77.30
49611;BME280;35515;48.766;9.176;2023-08-08T04:06:30;98427.75;;;14.83;77.92
49611;BME280;35515;48.766;9.176;2023-08-08T04:08:57;98424.94;;;14.78;78.43
49611;BME280;35515;48.766;9.176;2023-08-08T04:11:23;98431.59;;;14.94;77.18
49611;BME280;35515;48.766;9.176;2023-08-08T04:13:50;98438.56;;;14.78;78.30
49611;BME280;35515;48.766;9.176;2023-08-08T04:16:18;98428.84;;;14.82;77.40
49611;BME280;35515;48.766;9.176;2023-08-08T04:18:44;98422.31;;;14.83;77.27
49611;BME280;35515;48.766;9.176;2023-08-08T04:21:11;98420.19;;;14.85;76.50
49611;BME280;35515;48.766;9.176;2023-08-08T04:23:37;98426.13;;;14.82;76.49
49611;BME280;35515;48.766;9.176;2023-08-08T04:26:04;98430.03;;;14.86;76.51
49611;BME280;35515;48.766;9.176;2023-08-08T04:28:31;98427.44;;;14.92;75.87
49611;BME280;35515;48.766;9.176;2023-08-08T04:30:57;98424.34;;;14.88;76.33
49611;BME280;35515;48.766;9.176;2023-08-08T04:33:25;98416.13;;;14.76;77.32
49611;BME280;35515;48.766;9.176;2023-08-08T04:35:52;98423.84;;;14.79;76.66
49611;BME280;35515;48.766;9.176;2023-08-08T04:38:19;98429.78;;;14.76;77.05
49611;BME280;35515;48.766;9.176;2023-08-08T04:40:45;98426.84;;;14.90;76.33
49611;BME280;35515;48.766;9.176;2023-08-08T04:43:12;98432.53;;;14.88;76.83
49611;BME280;35515;48.766;9.176;2023-08-08T04:45:38;98439.97;;;14.69;79.52
49611;BME280;35515;48.766;9.176;2023-08-08T04:48:05;98441.53;;;14.88;77.60
49611;BME280;35515;48.766;9.176;2023-08-08T04:50:33;98442.84;;;14.98;77.06
49611;BME280;35515;48.766;9.176;2023-08-08T04:53:00;98444.63;;;14.92;77.56
49611;BME280;35515;48.766;9.176;2023-08-08T04:55:26;98443.66;;;14.75;80.50
49611;BME280;35515;48.766;9.176;2023-08-08T04:57:53;98445.44;;;14.81;79.03
49611;BME280;35515;48.766;9.176;2023-08-08T05:00:19;98451.97;;;14.80;79.27
49611;BME280;35515;48.766;9.176;2023-08-08T05:02:46;98449.47;;;14.78;79.14
49611;BME280;35515;48.766;9.176;2023-08-08T05:05:12;98443.16;;;14.78;79.45
49611;BME280;35515;48.766;9.176;2023-08-08T05:07:40;98444.84;;;14.79;79.53
49611;BME280;35515;48.766;9.176;2023-08-08T05:10:07;98430.72;;;14.82;79.50
49611;BME280;35515;48.766;9.176;2023-08-08T05:12:33;98440.91;;;14.75;80.46
49611;BME280;35515;48.766;9.176;2023-08-08T05:15:00;98436.75;;;14.72;80.67
49611;BME280;35515;48.766;9.176;2023-08-08T05:17:29;98434.03;;;14.72;81.07
49611;BME280;35515;48.766;9.176;2023-08-08T05:19:56;98423.13;;;14.72;81.25
49611;BME280;35515;48.766;9.176;2023-08-08T05:22:23;98425.13;;;14.77;80.86
49611;BME280;35515;48.766;9.176;2023-08-08T05:24:50;98419.34;;;14.73;81.56
49611;BME280;35515;48.766;9.176;2023-08-08T05:27:17;98422.31;;;14.71;80.98
49611;BME280;35515;48.766;9.176;2023-08-08T05:29:44;98418.03;;;14.76;80.97
49611;BME280;35515;48.766;9.176;2023-08-08T05:32:10;98419.34;;;14.73;81.43
49611;BME280;35515;48.766;9.176;2023-08-08T05:34:37;98415.91;;;14.78;79.93
49611;BME280;35515;48.766;9.176;2023-08-08T05:37:04;98425.03;;;14.83;79.64
49611;BME280;35515;48.766;9.176;2023-08-08T05:39:30;98420.47;;;15.08;76.91
49611;BME280;35515;48.766;9.176;2023-08-08T05:41:58;98424.63;;;15.10;76.18
49611;BME280;35515;48.766;9.176;2023-08-08T05:44:25;98420.91;;;14.93;77.97
49611;BME280;35515;48.766;9.176;2023-08-08T05:46:52;98439.53;;;14.96;77.24
49611;BME280;35515;48.766;9.176;2023-08-08T05:49:18;98433.03;;;14.97;77.02
49611;BME280;35515;48.766;9.176;2023-08-08T05:51:45;98438.38;;;15.03;76.50
49611;BME280;35515;48.766;9.176;2023-08-08T05:54:11;98436.09;;;15.12;75.72
49611;BME280;35515;48.766;9.176;2023-08-08T05:56:38;98436.34;;;15.11;75.92
49611;BME280;35515;48.766;9.176;2023-08-08T05:59:06;98441.69;;;15.17;74.68
49611;BME280;35515;48.766;9.176;2023-08-08T06:01:32;98446.66;;;15.32;74.27
49611;BME280;35515;48.766;9.176;2023-08-08T06:04:00;98444.19;;;15.19;74.85
49611;BME280;35515;48.766;9.176;2023-08-08T06:06:26;98438.34;;;15.15;74.60
49611;BME280;35515;48.766;9.176;2023-08-08T06:08:53;98440.50;;;15.13;75.09
49611;BME280;35515;48.766;9.176;2023-08-08T06:11:19;98433.84;;;15.09;75.94
49611;BME280;35515;48.766;9.176;2023-08-08T06:13:46;98450.13;;;15.40;73.92
49611;BME280;35515;48.766;9.176;2023-08-08T06:16:14;98439.44;;;15.38;73.73
49611;BME280;35515;48.766;9.176;2023-08-08T06:18:41;98434.09;;;15.43;73.57
49611;BME280;35515;48.766;9.176;2023-08-08T06:21:07;98431.03;;;15.40;73.67
49611;BME280;35515;48.766;9.176;2023-08-08T06:23:34;98431.47;;;15.48;73.92
49611;BME280;35515;48.766;9.176;2023-08-08T06:26:01;98428.50;;;15.50;73.29
49611;BME280;35515;48.766;9.176;2023-08-08T06:28:27;98426.38;;;15.64;72.22
49611;BME280;35515;48.766;9.176;2023-08-08T06:30:55;98422.81;;;15.51;73.03
49611;BME280;35515;48.766;9.176;2023-08-08T06:33:23;98427.81;;;15.54;73.34
49611;BME280;35515;48.766;9.176;2023-08-08T06:35:50;98431.97;;;15.45;73.48
49611;BME280;35515;48.766;9.176;2023-08-08T06:38:16;98433.50;;;15.41;74.23
49611;BME280;35515;48.766;9.176;2023-08-08T06:40:43;98434.31;;;15.53;73.92
49611;BME280;35515;48.766;9.176;2023-08-08T06:43:09;98439.41;;;15.50;74.13
49611;BME280;35515;48.766;9.176;2023-08-08T06:45:36;98439.28;;;15.57;73.59
49611;BME280;35515;48.766;9.176;2023-08-08T06:48:03;98440.16;;;15.57;73.25
49611;BME280;35515;48.766;9.176;2023-08-08T06:50:31;98438.34;;;15.63;72.97
49611;BME280;35515;48.766;9.176;2023-08-08T06:52:57;98434.19;;;15.60;73.78
49611;BME280;35515;48.766;9.176;2023-08-08T06:55:24;98437.66;;;15.55;74.52
49611;BME280;35515;48.766;9.176;2023-08-08T06:57:50;98434.19;;;15.60;73.75
49611;BME280;35515;48.766;9.176;2023-08-08T07:00:17;98437.72;;;15.72;73.62
49611;BME280;35515;48.766;9.176;2023-08-08T07:02:44;98429.44;;;15.67;74.08
49611;BME280;35515;48.766;9.176;2023-08-08T07:05:10;98431.22;;;15.85;73.11
49611;BME280;35515;48.766;9.176;2023-08-08T07:07:38;98431.72;;;15.82;73.25
49611;BME280;35515;48.766;9.176;2023-08-08T07:10:05;98430.72;;;15.88;73.29
49611;BME280;35515;48.766;9.176;2023-08-08T07:12:32;98431.47;;;15.84;73.51
49611;BME280;35515;48.766;9.176;2023-08-08T07:14:58;98433.84;;;16.21;70.49
49611;BME280;35515;48.766;9.176;2023-08-08T07:17:25;98435.16;;;16.18;71.36
49611;BME280;35515;48.766;9.176;2023-08-08T07:19:51;98435.63;;;16.15;70.84
49611;BME280;35515;48.766;9.176;2023-08-08T07:22:18;98428.56;;;16.31;70.48
49611;BME280;35515;48.766;9.176;2023-08-08T07:24:46;98435.97;;;16.19;71.12
49611;BME280;35515;48.766;9.176;2023-08-08T07:27:12;98433.69;;;16.28;70.78
49611;BME280;35515;48.766;9.176;2023-08-08T07:29:39;98428.13;;;16.23;71.55
49611;BME280;35515;48.766;9.176;2023-08-08T07:32:06;98420.09;;;16.16;72.30
49611;BME280;35515;48.766;9.176;2023-08-08T07:34:32;98419.00;;;16.17;72.10
49611;BME280;35515;48.766;9.176;2023-08-08T07:36:59;98415.94;;;16.13;73.06
49611;BME280;35515;48.766;9.176;2023-08-08T07:39:25;98410.81;;;16.17;72.26
49611;BME280;35515;48.766;9.176;2023-08-08T07:41:54;98414.81;;;16.26;71.15
49611;BME280;35515;48.766;9.176;2023-08-08T07:44:21;98420.47;;;16.36;70.83
49611;BME280;35515;48.766;9.176;2023-08-08T07:46:47;98424.56;;;16.51;69.41
49611;BME280;35515;48.766;9.176;2023-08-08T07:49:14;98417.34;;;16.62;67.22
49611;BME280;35515;48.766;9.176;2023-08-08T07:51:41;98419.22;;;16.73;66.25
49611;BME280;35515;48.766;9.176;2023-08-08T07:54:07;98419.69;;;16.70;66.66
49611;BME280;35515;48.766;9.176;2023-08-08T07:56:36;98416.22;;;16.75;64.67
49611;BME280;35515;48.766;9.176;2023-08-08T07:59:04;98402.63;;;16.80;64.87
49611;BME280;35515;48.766;9.176;2023-08-08T08:01:30;98421.03;;;16.84;64.49
49611;BME280;35515;48.766;9.176;2023-08-08T08:03:57;98406.63;;;16.89;62.90
49611;BME280;35515;48.766;9.176;2023-08-08T08:06:23;98413.41;;;16.86;63.72
49611;BME280;35515;48.766;9.176;2023-08-08T08:08:50;98413.38;;;16.98;62.69
49611;BME280;35515;48.766;9.176;2023-08-08T08:11:16;98412.03;;;17.01;61.84
49611;BME280;35515;48.766;9.176;2023-08-08T08:13:43;98408.44;;;17.00;62.58
49611;BME280;35515;48.766;9.176;2023-08-08T08:16:11;98404.97;;;17.05;63.16
49611;BME280;35515;48.766;9.176;2023-08-08T08:18:37;98398.44;;;17.06;63.29
49611;BME280;35515;48.766;9.176;2023-08-08T08:21:04;98405.16;;;17.15;61.76
49611;BME280;35515;48.766;9.176;2023-08-08T08:23:31;98408.78;;;17.21;62.22
49611;BME280;35515;48.766;9.176;2023-08-08T08:25:58;98412.84;;;17.18;62.58
49611;BME280;35515;48.766;9.176;2023-08-08T08:28:25;98409.59;;;17.21;61.42
49611;BME280;35515;48.766;9.176;2023-08-08T08:30:51;98411.09;;;17.12;61.74
49611;BME280;35515;48.766;9.176;2023-08-08T08:33:19;98410.44;;;17.22;62.07
49611;BME280;35515;48.766;9.176;2023-08-08T08:35:46;98405.97;;;17.16;62.77
49611;BME280;35515;48.766;9.176;2023-08-08T08:38:13;98415.84;;;17.17;62.83
49611;BME280;35515;48.766;9.176;2023-08-08T08:40:41;98411.78;;;17.19;62.14
49611;BME280;35515;48.766;9.176;2023-08-08T08:43:09;98417.13;;;17.31;61.66
49611;BME280;35515;48.766;9.176;2023-08-08T08:45:37;98412.50;;;17.32;62.29
49611;BME280;35515;48.766;9.176;2023-08-08T08:48:07;98401.63;;;17.37;62.52
49611;BME280;35515;48.766;9.176;2023-08-08T08:50:36;98398.88;;;17.37;62.99
49611;BME280;35515;48.766;9.176;2023-08-08T08:53:04;98405.59;;;17.46;62.75
49611;BME280;35515;48.766;9.176;2023-08-08T08:55:31;98395.13;;;17.43;61.75
49611;BME280;35515;48.766;9.176;2023-08-08T08:57:59;98401.75;;;17.47;62.19
49611;BME280;35515;48.766;9.176;2023-08-08T09:00:25;98392.97;;;17.45;62.04
49611;BME280;35515;48.766;9.176;2023-08-08T09:02:52;98390.94;;;17.58;62.36
49611;BME280;35515;48.766;9.176;2023-08-08T09:05:20;98390.75;;;17.64;60.39
49611;BME280;35515;48.766;9.176;2023-08-08T09:07:49;98390.75;;;17.64;60.63
49611;BME280;35515;48.766;9.176;2023-08-08T09:10:17;98390.97;;;17.80;60.34
49611;BME280;35515;48.766;9.176;2023-08-08T09:12:44;98384.00;;;17.72;60.65
49611;BME280;35515;48.766;9.176;2023-08-08T09:15:11;98391.34;;;17.66;61.12
49611;BME280;35515;48.766;9.176;2023-08-08T09:17:40;98385.94;;;17.71;60.55
49611;BME280;35515;48.766;9.176;2023-08-08T09:20:08;98382.41;;;17.76;60.59
49611;BME280;35515;48.766;9.176;2023-08-08T09:22:36;98386.56;;;17.79;61.34
49611;BME280;35515;48.766;9.176;2023-08-08T09:25:05;98387.19;;;17.86;60.74
49611;BME280;35515;48.766;9.176;2023-08-08T09:27:33;98387.69;;;17.83;61.34
49611;BME280;35515;48.766;9.176;2023-08-08T09:29:59;98387.09;;;17.98;60.21
49611;BME280;35515;48.766;9.176;2023-08-08T09:32:28;98385.81;;;18.05;58.82
49611;BME280;35515;48.766;9.176;2023-08-08T09:34:55;98382.00;;;18.07;57.86
49611;BME280;35515;48.766;9.176;2023-08-08T09:37:22;98377.97;;;18.14;57.53
49611;BME280;35515;48.766;9.176;2023-08-08T09:39:56;98370.09;;;17.96;57.63
49611;BME280;35515;48.766;9.176;2023-08-08T09:42:24;98373.38;;;17.98;58.75
49611;BME280;35515;48.766;9.176;2023-08-08T09:44:52;98362.53;;;18.08;56.95
49611;BME280;35515;48.766;9.176;2023-08-08T09:47:21;98365.88;;;18.10;57.00
49611;BME280;35515;48.766;9.176;2023-08-08T09:49:48;98370.41;;;18.27;55.61
49611;BME280;35515;48.766;9.176;2023-08-08T09:52:15;98363.19;;;18.15;55.67
49611;BME280;35515;48.766;9.176;2023-08-08T09:54:42;98353.34;;;18.19;55.74
49611;BME280;35515;48.766;9.176;2023-08-08T09:57:09;98362.66;;;18.18;55.82
49611;BME280;35515;48.766;9.176;2023-08-08T09:59:38;98356.13;;;18.25;56.06
49611;BME280;35515;48.766;9.176;2023-08-08T10:02:08;98358.91;;;18.30;55.68
49611;BME280;35515;48.766;9.176;2023-08-08T10:04:40;98356.59;;;18.44;54.63
49611;BME280;35515;48.766;9.176;2023-08-08T10:07:07;98356.28;;;18.40;55.12
49611;BME280;35515;48.766;9.176;2023-08-08T10:09:34;98359.22;;;18.33;55.71
49611;BME280;35515;48.766;9.176;2023-08-08T10:12:03;98352.50;;;18.46;54.68
49611;BME280;35515;48.766;9.176;2023-08-08T10:14:31;98349.50;;;18.48;54.64
49611;BME280;35515;48.766;9.176;2023-08-08T10:17:02;98352.50;;;18.46;54.12
49611;BME280;35515;48.766;9.176;2023-08-08T10:19:29;98341.31;;;18.53;53.93
49611;BME280;35515;48.766;9.176;2023-08-08T10:21:57;98348.78;;;18.63;52.51
49611;BME280;35515;48.766;9.176;2023-08-08T10:24:24;98343.34;;;18.68;52.23
49611;BME280;35515;48.766;9.176;2023-08-08T10:26:51;98348.63;;;18.75;50.92
49611;BME280;35515;48.766;9.176;2023-08-08T10:29:19;98348.84;;;18.68;51.58
49611;BME280;35515;48.766;9.176;2023-08-08T10:31:51;98352.72;;;18.72;50.12
49611;BME280;35515;48.766;9.176;2023-08-08T10:34:20;98355.19;;;18.74;49.99
49611;BME280;35515;48.766;9.176;2023-08-08T10:36:51;98346.16;;;18.73;50.14
49611;BME280;35515;48.766;9.176;2023-08-08T10:39:18;98349.47;;;18.80;49.63
49611;BME280;35515;48.766;9.176;2023-08-08T10:41:47;98338.56;;;18.85;50.58
49611;BME280;35515;48.766;9.176;2023-08-08T10:44:20;98341.44;;;19.01;49.41
49611;BME280;35515;48.766;9.176;2023-08-08T10:46:47;98334.84;;;18.97;48.26
49611;BME280;35515;48.766;9.176;2023-08-08T10:49:14;98334.53;;;18.93;47.66
49611;BME280;35515;48.766;9.176;2023-08-08T10:51:44;98345.59;;;19.03;47.61
49611;BME280;35515;48.766;9.176;2023-08-08T10:54:13;98339.25;;;19.03;46.79
49611;BME280;35515;48.766;9.176;2023-08-08T10:56:41;98330.50;;;19.06;47.49
49611;BME280;35515;48.766;9.176;2023-08-08T10:59:14;98329.16;;;19.09;47.70
49611;BME280;35515;48.766;9.176;2023-08-08T11:01:45;98331.69;;;19.26;46.10
49611;BME280;35515;48.766;9.176;2023-08-08T11:04:11;98344.06;;;19.28;44.61
49611;BME280;35515;48.766;9.176;2023-08-08T11:06:39;98329.81;;;19.31;45.78
49611;BME280;35515;48.766;9.176;2023-08-08T11:09:08;98339.44;;;19.34;44.87
49611;BME280;35515;48.766;9.176;2023-08-08T11:11:44;98336.63;;;19.24;45.19
49611;BME280;35515;48.766;9.176;2023-08-08T11:14:13;98332.06;;;19.40;44.93
49611;BME280;35515;48.766;9.176;2023-08-08T11:16:40;98329.59;;;19.38;44.85
49611;BME280;35515;48.766;9.176;2023-08-08T11:19:07;98329.06;;;19.46;44.63
49611;BME280;35515;48.766;9.176;2023-08-08T11:21:34;98315.84;;;19.38;45.49
49611;BME280;35515;48.766;9.176;2023-08-08T11:24:02;98319.47;;;19.49;45.17
49611;BME280;35515;48.766;9.176;2023-08-08T11:26:30;98326.94;;;19.64;45.25
49611;BME280;35515;48.766;9.176;2023-08-08T11:28:58;98324.50;;;19.78;44.43
49611;BME280;35515;48.766;9.176;2023-08-08T11:31:25;98322.13;;;19.92;44.15
49611;BME280;35515;48.766;9.176;2023-08-08T11:33:52;98325.06;;;19.80;43.23
49611;BME280;35515;48.766;9.176;2023-08-08T11:36:19;98316.63;;;19.92;43.31
49611;BME280;35515;48.766;9.176;2023-08-08T11:38:48;98309.25;;;20.18;40.84
49611;BME280;35515;48.766;9.176;2023-08-08T11:41:16;98316.94;;;20.16;40.44
49611;BME280;35515;48.766;9.176;2023-08-08T11:43:44;98315.84;;;20.07;41.43
49611;BME280;35515;48.766;9.176;2023-08-08T11:46:12;98311.41;;;20.05;42.81
49611;BME280;35515;48.766;9.176;2023-08-08T11:48:39;98308.41;;;20.02;43.03
49611;BME280;35515;48.766;9.176;2023-08-08T11:51:06;98310.88;;;20.03;43.54
49611;BME280;35515;48.766;9.176;2023-08-08T11:53:33;98312.22;;;19.96;44.20
49611;BME280;35515;48.766;9.176;2023-08-08T11:56:01;98314.47;;;20.09;43.86
49611;BME280;35515;48.766;9.176;2023-08-08T11:58:29;98316.88;;;19.95;44.20
49611;BME280;35515;48.766;9.176;2023-08-08T12:00:57;98319.66;;;19.90;42.92
49611;BME280;35515;48.766;9.176;2023-08-08T12:03:25;98311.09;;;19.81;42.92
49611;BME280;35515;48.766;9.176;2023-08-08T12:05:51;98306.72;;;19.91;43.09
49611;BME280;35515;48.766;9.176;2023-08-08T12:08:18;98316.66;;;20.07;41.62
49611;BME280;35515;48.766;9.176;2023-08-08T12:10:47;98307.84;;;20.00;41.80
49611;BME280;35515;48.766;9.176;2023-08-08T12:13:19;98308.91;;;19.94;42.89
49611;BME280;35515;48.766;9.176;2023-08-08T12:15:46;98307.56;;;20.01;42.60
49611;BME280;35515;48.766;9.176;2023-08-08T12:18:16;98295.22;;;20.09;43.12
49611;BME280;35515;48.766;9.176;2023-08-08T12:20:43;98297.16;;;20.09;41.34
49611;BME280;35515;48.766;9.176;2023-08-08T12:23:10;98288.63;;;20.26;41.33
49611;BME280;35515;48.766;9.176;2023-08-08T12:25:36;98286.97;;;20.35;40.86
49611;BME280;35515;48.766;9.176;2023-08-08T12:28:03;98288.09;;;20.49;40.52
49611;BME280;35515;48.766;9.176;2023-08-08T12:30:30;98289.72;;;20.30;41.41
49611;BME280;35515;48.766;9.176;2023-08-08T12:32:57;98282.31;;;20.20;42.06
49611;BME280;35515;48.766;9.176;2023-08-08T12:35:25;98288.09;;;20.29;42.67
49611;BME280;35515;48.766;9.176;2023-08-08T12:37:52;98283.13;;;20.26;43.48
49611;BME280;35515;48.766;9.176;2023-08-08T12:40:19;98289.19;;;20.33;42.99
49611;BME280;35515;48.766;9.176;2023-08-08T12:42:46;98282.84;;;20.37;43.27
49611;BME280;35515;48.766;9.176;2023-08-08T12:45:13;98281.47;;;20.40;43.76
49611;BME280;35515;48.766;9.176;2023-08-08T12:47:40;98282.59;;;20.44;43.89
49611;BME280;35515;48.766;9.176;2023-08-08T12:50:07;98285.88;;;20.41;43.65
49611;BME280;35515;48.766;9.176;2023-08-08T12:52:35;98293.31;;;20.46;43.78
49611;BME280;35515;48.766;9.176;2023-08-08T12:55:04;98281.19;;;20.42;41.90
49611;BME280;35515;48.766;9.176;2023-08-08T12:57:31;98277.06;;;20.44;42.28
49611;BME280;35515;48.766;9.176;2023-08-08T12:59:57;98272.13;;;20.67;42.15